createdAt,value
2022-11-19T00:02:00.357Z,8.99
2022-11-19T00:06:07.583Z,8.90
2022-11-19T00:10:11.261Z,8.75
2022-11-19T00:14:12.743Z,8.76
2022-11-19T00:18:13.251Z,8.72
2022-11-19T00:22:13.790Z,8.73
2022-11-19T00:26:18.054Z,8.55
2022-11-19T00:30:40.951Z,8.44
2022-11-19T00:34:39.413Z,8.26
2022-11-19T00:38:40.301Z,8.38
2022-11-19T00:43:03.077Z,8.32
2022-11-19T00:47:03.327Z,8.42
2022-11-19T00:51:04.393Z,8.53
2022-11-19T00:55:04.737Z,8.58
2022-11-19T00:59:08.022Z,8.76
2022-11-19T01:03:08.547Z,8.59
2022-11-19T01:07:08.981Z,8.77
2022-11-19T01:11:11.616Z,8.51
2022-11-19T01:15:14.586Z,8.32
2022-11-19T01:19:17.163Z,8.27
2022-11-19T01:23:17.733Z,8.42
2022-11-19T01:27:17.995Z,8.10
2022-11-19T01:31:24.485Z,8.10
2022-11-19T01:35:24.613Z,7.95
2022-11-19T01:39:24.647Z,7.83
2022-11-19T01:43:43.775Z,7.95
2022-11-19T01:47:46.633Z,7.67
2022-11-19T01:51:54.313Z,7.72
2022-11-19T01:55:55.403Z,7.77
2022-11-19T01:59:55.987Z,7.71
2022-11-19T02:04:00.792Z,7.68
2022-11-19T02:08:01.993Z,7.72
2022-11-19T02:12:25.183Z,7.69
2022-11-19T02:16:34.407Z,7.67
2022-11-19T02:21:08.952Z,7.69
2022-11-19T02:25:26.085Z,7.70
2022-11-19T02:30:07.780Z,7.65
2022-11-19T02:34:17.396Z,7.50
2022-11-19T02:38:30.768Z,7.43
2022-11-19T02:42:38.071Z,7.35
2022-11-19T02:46:41.853Z,7.30
2022-11-19T02:50:49.214Z,7.06
2022-11-19T02:54:49.292Z,7.15
2022-11-19T02:59:07.839Z,6.84
2022-11-19T03:03:30.637Z,7.13
2022-11-19T03:07:32.750Z,7.15
2022-11-19T03:11:35.766Z,6.85
2022-11-19T03:16:02.057Z,6.94
2022-11-19T03:20:18.780Z,7.00
2022-11-19T03:24:26.146Z,7.02
2022-11-19T03:28:32.915Z,7.10
2022-11-19T03:32:39.744Z,7.26
2022-11-19T03:36:46.485Z,7.26
2022-11-19T03:40:47.705Z,7.25
2022-11-19T03:44:52.949Z,7.29
2022-11-19T03:48:57.569Z,6.59
2022-11-19T03:53:04.594Z,6.84
2022-11-19T03:57:08.385Z,6.54
2022-11-19T04:01:08.909Z,6.96
2022-11-19T04:05:10.018Z,6.69
2022-11-19T04:09:12.723Z,7.03
2022-11-19T04:13:12.876Z,6.92
2022-11-19T04:17:13.822Z,6.86
2022-11-19T04:21:13.971Z,7.04
2022-11-19T04:25:16.829Z,6.89
2022-11-19T04:29:17.321Z,6.75
2022-11-19T04:33:17.775Z,6.96
2022-11-19T04:37:17.921Z,7.00
2022-11-19T04:41:20.620Z,7.24
2022-11-19T04:45:20.763Z,7.20
2022-11-19T04:49:21.092Z,7.04
2022-11-19T04:53:21.626Z,6.86
2022-11-19T04:57:24.441Z,6.71
2022-11-19T05:01:24.828Z,6.85
2022-11-19T05:05:25.021Z,7.15
2022-11-19T05:09:25.368Z,7.13
2022-11-19T05:13:28.386Z,7.29
2022-11-19T05:17:28.549Z,7.20
2022-11-19T05:21:28.907Z,7.31
2022-11-19T05:25:29.161Z,7.23
2022-11-19T05:29:31.958Z,7.12
2022-11-19T05:33:34.318Z,7.00
2022-11-19T05:37:34.867Z,7.18
2022-11-19T05:41:34.973Z,6.88
2022-11-19T05:45:37.874Z,6.96
2022-11-19T05:49:38.043Z,6.67
2022-11-19T05:53:38.144Z,6.84
2022-11-19T05:57:38.226Z,6.88
2022-11-19T06:01:40.981Z,6.71
2022-11-19T06:05:41.142Z,6.53
2022-11-19T06:09:41.306Z,6.41
2022-11-19T06:13:41.335Z,6.61
2022-11-19T06:17:44.372Z,6.69
2022-11-19T06:21:44.484Z,6.51
2022-11-19T06:25:44.920Z,6.65
2022-11-19T06:29:45.031Z,6.44
2022-11-19T06:33:47.914Z,6.43
2022-11-19T06:37:48.024Z,6.59
2022-11-19T06:41:48.814Z,6.62
2022-11-19T06:45:49.083Z,6.68
2022-11-19T06:49:51.733Z,6.67
2022-11-19T06:53:51.960Z,6.46
2022-11-19T06:57:52.219Z,6.53
2022-11-19T07:01:52.381Z,6.22
2022-11-19T07:06:01.891Z,6.31
2022-11-19T07:10:01.931Z,6.26
2022-11-19T07:14:03.746Z,6.45
2022-11-19T07:18:05.308Z,6.42
2022-11-19T07:22:08.112Z,6.29
2022-11-19T07:26:08.631Z,6.57
2022-11-19T07:30:11.689Z,6.52
2022-11-19T07:34:13.685Z,6.56
2022-11-19T07:38:16.378Z,6.68
2022-11-19T07:42:37.472Z,6.44
2022-11-19T07:46:41.747Z,6.22
2022-11-19T07:50:41.881Z,6.35
2022-11-19T07:54:44.639Z,5.92
2022-11-19T07:58:45.151Z,6.18
2022-11-19T08:02:45.328Z,6.35
2022-11-19T08:06:45.497Z,6.60
2022-11-19T08:10:48.204Z,6.89
2022-11-19T08:14:48.287Z,6.96
2022-11-19T08:18:48.398Z,7.03
2022-11-19T08:22:48.436Z,7.24
2022-11-19T08:26:51.940Z,7.33
2022-11-19T08:30:52.288Z,7.35
2022-11-19T08:34:52.529Z,7.39
2022-11-19T08:38:52.711Z,7.16
2022-11-19T08:43:04.324Z,6.87
2022-11-19T08:47:04.494Z,7.19
2022-11-19T08:51:07.315Z,6.97
2022-11-19T08:55:09.145Z,6.41
2022-11-19T08:59:12.235Z,6.60
2022-11-19T09:03:12.795Z,6.64
2022-11-19T09:07:13.137Z,6.85
2022-11-19T09:11:16.239Z,6.83
2022-11-19T09:15:19.152Z,6.90
2022-11-19T09:19:19.241Z,7.14
2022-11-19T09:23:19.294Z,7.23
2022-11-19T09:27:19.380Z,7.27
2022-11-19T09:31:23.590Z,7.69
2022-11-19T09:35:23.778Z,7.91
2022-11-19T09:39:24.155Z,7.73
2022-11-19T09:43:44.977Z,7.57
2022-11-19T09:48:13.961Z,7.24
2022-11-19T09:52:20.135Z,7.53
2022-11-19T09:56:28.593Z,7.67
2022-11-19T10:00:32.431Z,7.43
2022-11-19T10:04:36.225Z,7.43
2022-11-19T10:08:58.949Z,7.60
2022-11-19T10:13:20.700Z,7.40
2022-11-19T10:17:36.680Z,7.77
2022-11-19T10:21:52.954Z,7.79
2022-11-19T10:25:59.137Z,7.38
2022-11-19T10:30:09.095Z,7.41
2022-11-19T10:34:19.563Z,7.99
2022-11-19T10:38:30.342Z,8.11
2022-11-19T10:42:38.611Z,8.27
2022-11-19T10:46:39.298Z,8.56
2022-11-19T10:50:39.817Z,8.58
2022-11-19T10:54:44.563Z,8.34
2022-11-19T10:58:52.731Z,8.49
2022-11-19T11:03:01.917Z,8.74
2022-11-19T11:07:04.976Z,8.81
2022-11-19T11:11:08.012Z,8.83
2022-11-19T11:15:15.806Z,8.73
2022-11-19T11:19:20.464Z,9.03
2022-11-19T11:23:25.441Z,8.66
2022-11-19T11:27:34.146Z,8.94
2022-11-19T11:31:38.760Z,9.35
2022-11-19T11:35:40.569Z,8.93
2022-11-19T11:39:44.511Z,8.79
2022-11-19T11:44:04.209Z,8.42
2022-11-19T11:48:10.849Z,8.70
2022-11-19T11:52:22.593Z,8.28
2022-11-19T11:56:24.502Z,8.01
2022-11-19T12:00:37.935Z,8.10
2022-11-19T12:04:38.645Z,8.31
2022-11-19T12:08:51.761Z,8.34
2022-11-19T12:13:26.136Z,8.49
2022-11-19T12:17:51.042Z,8.26
2022-11-19T12:22:06.179Z,8.27
2022-11-19T12:26:19.826Z,8.08
2022-11-19T12:30:24.123Z,8.24
2022-11-19T12:35:12.964Z,8.34
2022-11-19T12:39:35.591Z,8.07
2022-11-19T12:43:56.519Z,8.47
2022-11-19T12:48:34.938Z,8.75
2022-11-19T12:53:10.240Z,8.14
2022-11-19T12:57:27.946Z,8.40
2022-11-19T13:01:34.854Z,8.20
2022-11-19T13:05:47.736Z,8.62
2022-11-19T13:09:55.674Z,8.63
2022-11-19T13:14:02.978Z,8.42
2022-11-19T13:18:11.168Z,8.44
2022-11-19T13:22:20.488Z,8.00
2022-11-19T13:26:28.991Z,8.05
2022-11-19T13:30:32.199Z,7.59
2022-11-19T13:34:42.073Z,7.71
2022-11-19T13:38:49.730Z,7.71
2022-11-19T13:43:30.644Z,7.79
2022-11-19T13:47:32.276Z,7.78
2022-11-19T13:51:39.742Z,7.76
2022-11-19T13:55:44.238Z,7.58
2022-11-19T13:59:50.294Z,7.47
2022-11-19T14:04:13.373Z,7.48
2022-11-19T14:08:35.260Z,7.57
2022-11-19T14:13:09.501Z,7.47
2022-11-19T14:17:38.015Z,7.49
2022-11-19T14:22:11.718Z,7.65
2022-11-19T14:26:24.049Z,7.82
2022-11-19T14:31:08.291Z,7.74
2022-11-19T14:35:32.456Z,7.68
2022-11-19T14:39:41.405Z,7.70
2022-11-19T14:44:11.662Z,7.59
2022-11-19T14:48:11.819Z,7.69
2022-11-19T14:52:28.477Z,7.78
2022-11-19T14:56:28.984Z,7.69
2022-11-19T15:00:35.336Z,7.78
2022-11-19T15:04:41.159Z,7.65
2022-11-19T15:08:56.916Z,7.73
2022-11-19T15:13:36.597Z,7.60
2022-11-19T15:17:38.329Z,7.68
2022-11-19T15:22:24.991Z,7.44
2022-11-19T15:26:39.486Z,7.65
2022-11-19T15:31:14.525Z,7.60
2022-11-19T15:35:40.295Z,7.68
2022-11-19T15:39:48.074Z,7.56
2022-11-19T15:43:56.645Z,7.66
2022-11-19T15:48:13.164Z,7.61
2022-11-19T15:52:26.108Z,7.41
2022-11-19T15:56:26.815Z,7.56
2022-11-19T16:00:30.650Z,7.45
2022-11-19T16:04:39.038Z,7.38
2022-11-19T16:08:40.583Z,7.22
2022-11-19T16:12:53.131Z,7.33
2022-11-19T16:17:09.764Z,7.26
2022-11-19T16:21:09.931Z,7.25
2022-11-19T16:25:16.596Z,7.35
2022-11-19T16:29:22.529Z,7.43
2022-11-19T16:33:28.725Z,7.55
2022-11-19T16:37:29.417Z,7.39
2022-11-19T16:41:42.699Z,7.32
2022-11-19T16:45:48.355Z,7.27
2022-11-19T16:50:04.033Z,7.30
2022-11-19T16:54:06.025Z,7.27
2022-11-19T16:58:17.362Z,7.20
2022-11-19T17:02:20.887Z,7.28
2022-11-19T17:06:27.974Z,7.41
2022-11-19T17:10:34.729Z,7.38
2022-11-19T17:14:52.591Z,7.15
2022-11-19T17:18:54.152Z,7.10
2022-11-19T17:22:57.226Z,6.96
2022-11-19T17:26:57.396Z,7.07
2022-11-19T17:30:58.914Z,7.02
2022-11-19T17:34:59.060Z,7.11
2022-11-19T17:39:01.926Z,7.07
2022-11-19T17:43:15.745Z,7.06
2022-11-19T17:47:23.522Z,7.08
2022-11-19T17:51:27.891Z,6.88
2022-11-19T17:55:30.678Z,7.04
2022-11-19T17:59:30.782Z,7.08
2022-11-19T18:03:30.971Z,6.66
2022-11-19T18:07:32.593Z,6.68
2022-11-19T18:11:35.491Z,6.73
2022-11-19T18:15:35.573Z,6.73
2022-11-19T18:19:35.741Z,6.89
2022-11-19T18:23:35.897Z,7.01
2022-11-19T18:27:38.856Z,7.06
2022-11-19T18:31:45.771Z,7.07
2022-11-19T18:35:46.176Z,7.20
2022-11-19T18:39:46.598Z,7.16
2022-11-19T18:44:02.434Z,6.77
2022-11-19T18:48:02.659Z,7.01
2022-11-19T18:52:03.234Z,7.08
2022-11-19T18:56:03.332Z,7.03
2022-11-19T19:00:07.589Z,7.01
2022-11-19T19:04:14.363Z,6.99
2022-11-19T19:08:16.028Z,6.99
2022-11-19T19:12:22.328Z,6.65
2022-11-19T19:16:26.206Z,6.85
2022-11-19T19:20:26.953Z,6.74
2022-11-19T19:24:27.288Z,6.86
2022-11-19T19:28:27.794Z,6.81
2022-11-19T19:32:30.531Z,7.04
2022-11-19T19:36:31.021Z,6.92
2022-11-19T19:40:31.342Z,6.62
2022-11-19T19:44:31.783Z,6.59
2022-11-19T19:48:36.149Z,6.58
2022-11-19T19:52:36.332Z,6.75
2022-11-19T19:56:37.160Z,6.24
2022-11-19T20:00:37.409Z,6.32
2022-11-19T20:04:40.241Z,6.57
2022-11-19T20:08:41.634Z,6.56
2022-11-19T20:12:54.385Z,6.60
2022-11-19T20:16:56.214Z,6.59
2022-11-19T20:21:02.054Z,6.69
2022-11-19T20:25:02.243Z,6.75
2022-11-19T20:29:04.721Z,6.44
2022-11-19T20:33:05.185Z,6.43
2022-11-19T20:37:08.001Z,6.48
2022-11-19T20:41:31.506Z,6.53
2022-11-19T20:45:31.638Z,6.34
2022-11-19T20:49:34.971Z,6.13
2022-11-19T20:53:39.282Z,6.11
2022-11-19T20:57:39.880Z,6.13
2022-11-19T21:01:41.388Z,6.40
2022-11-19T21:05:41.818Z,6.49
2022-11-19T21:09:44.824Z,6.09
2022-11-19T21:13:45.827Z,6.38
2022-11-19T21:17:46.711Z,6.37
2022-11-19T21:21:47.293Z,6.51
2022-11-19T21:25:52.885Z,6.63
2022-11-19T21:29:53.083Z,6.70
2022-11-19T21:33:53.486Z,6.70
2022-11-19T21:37:53.753Z,6.56
2022-11-19T21:41:57.059Z,6.50
2022-11-19T21:45:58.130Z,6.30
2022-11-19T21:50:00.828Z,6.36
2022-11-19T21:54:02.139Z,6.38
2022-11-19T21:58:05.540Z,6.26
2022-11-19T22:02:05.691Z,6.17
2022-11-19T22:06:09.585Z,6.23
2022-11-19T22:10:10.987Z,6.38
2022-11-19T22:14:13.767Z,6.43
2022-11-19T22:18:13.913Z,6.24
2022-11-19T22:22:14.149Z,6.35
2022-11-19T22:26:16.086Z,6.26
2022-11-19T22:30:19.359Z,6.41
2022-11-19T22:34:19.544Z,6.36
2022-11-19T22:38:19.760Z,6.31
2022-11-19T22:42:19.925Z,6.36
2022-11-19T22:46:23.629Z,6.45
2022-11-19T22:50:23.779Z,6.58
2022-11-19T22:54:23.918Z,6.70
2022-11-19T22:58:24.050Z,6.72
2022-11-19T23:02:26.884Z,6.68
2022-11-19T23:06:27.865Z,6.71
2022-11-19T23:10:28.125Z,6.65
2022-11-19T23:14:30.025Z,6.71
2022-11-19T23:18:35.012Z,6.40
2022-11-19T23:22:35.084Z,6.51
2022-11-19T23:26:36.582Z,6.58
2022-11-19T23:30:37.081Z,6.36
2022-11-19T23:34:39.767Z,6.53
2022-11-19T23:38:41.159Z,6.47
2022-11-19T23:42:41.362Z,6.38
2022-11-19T23:46:42.429Z,6.48
2022-11-19T23:50:45.099Z,6.46
2022-11-19T23:54:45.184Z,6.16
2022-11-19T23:58:45.690Z,6.28
